ADDS METAR Data INFO
IDs: Format: Raw Decoded Include TAF

Data at: 0144 UTC 26 Feb 2018

KRCM 260135Z AUTO 00000KT 10SM OVC090 06/M03 A3009 RMK AO2
KRCM 260115Z AUTO 00000KT 10SM BKN100 06/M04 A3008 RMK AO2
KRCM 260055Z AUTO 00000KT 10SM BKN100 07/M04 A3008 RMK AO2
KRCM 260035Z AUTO 00000KT 10SM SCT100 08/M04 A3007 RMK AO2
KRCM 260015Z AUTO 00000KT 10SM SCT100 08/M03 A3007 RMK AO2
KRCM 252355Z AUTO 16003KT 10SM BKN100 09/M03 A3007 RMK AO2
KRCM 252335Z AUTO 19003KT 10SM OVC100 08/M03 A3008 RMK AO2
KRCM 252315Z AUTO 18004KT 10SM BKN100 09/M03 A3007 RMK AO2
KRCM 252255Z AUTO 19005KT 10SM SCT100 09/M03 A3007 RMK AO2
KRCM 252235Z AUTO 20005KT 10SM SCT100 10/M03 A3007 RMK AO2
KRCM 252215Z AUTO 20005G14KT 10SM CLR 10/M04 A3007 RMK AO2
KRCM 252155Z AUTO 18004KT 10SM CLR 10/M04 A3007 RMK AO2
KRCM 252135Z AUTO 23003KT 10SM CLR 10/M05 A3008 RMK AO2
KRCM 252115Z AUTO 20005KT 10SM SCT095 10/M03 A3008 RMK AO2
KRCM 252055Z AUTO 22007KT 10SM BKN095 08/M05 A3008 RMK AO2
KRCM 252035Z AUTO 22003KT 10SM BKN095 08/M04 A3008 RMK AO2
KRCM 252015Z AUTO 19007KT 10SM CLR 08/M04 A3008 RMK AO2
KRCM 251955Z AUTO 24004KT 10SM CLR 08/M03 A3008 RMK AO2
KRCM 251935Z AUTO 23007KT 10SM CLR 08/M03 A3009 RMK AO2
KRCM 251915Z AUTO 22006KT 10SM CLR 07/M02 A3009 RMK AO2
KRCM 251855Z AUTO 22008KT 10SM CLR 07/M02 A3010 RMK AO2
KRCM 251835Z AUTO 21007KT 10SM CLR 07/M01 A3010 RMK AO2
KRCM 251815Z AUTO 19005KT 10SM CLR 06/M01 A3010 RMK AO2
KRCM 251755Z AUTO 20006KT 10SM CLR 06/M01 A3010 RMK AO2
KRCM 251735Z AUTO 19008KT 10SM CLR 05/M01 A3011 RMK AO2
KRCM 251715Z AUTO 19007KT 10SM CLR 05/M02 A3010 RMK AO2
KRCM 251655Z AUTO 21008KT 10SM CLR 03/M02 A3010 RMK AO2
KRCM 251635Z AUTO 21006KT 10SM CLR 03/M02 A3010 RMK AO2
KRCM 251615Z AUTO 20007KT 10SM CLR 02/M02 A3008 RMK AO2
KRCM 251555Z AUTO 21005KT 10SM CLR 02/M02 A3008 RMK AO2
KRCM 251535Z AUTO 22005KT 10SM CLR 01/M02 A3006 RMK AO2
KRCM 251515Z AUTO 21004KT 10SM CLR 00/M02 A3005 RMK AO2
KRCM 251455Z AUTO 21003KT 10SM CLR 00/M02 A3004 RMK AO2
KRCM 251435Z AUTO 21003KT 10SM CLR 00/M03 A3002 RMK AO2
KRCM 251415Z AUTO 24003KT 10SM CLR M01/M03 A3001 RMK AO2
KRCM 251355Z AUTO 24004KT 10SM CLR M02/M03 A3001 RMK AO2
KRCM 251335Z AUTO 24005KT 10SM CLR M02/M04 A3001 RMK AO2
KRCM 251315Z AUTO 26005KT 10SM CLR M02/M04 A3000 RMK AO2
KRCM 251255Z AUTO 26005KT 10SM CLR M02/M04 A3000 RMK AO2
KRCM 251235Z AUTO 25004KT 10SM CLR M02/M03 A3000 RMK AO2
KRCM 251215Z AUTO 23005KT 10SM CLR M02/M03 A3000 RMK AO2
KRCM 251155Z AUTO 22005KT 10SM CLR M02/M03 A3000 RMK AO2
KRCM 251135Z AUTO 21005KT 10SM CLR M02/M03 A3000 RMK AO2
KRCM 251115Z AUTO 19004KT 10SM CLR M02/M03 A3000 RMK AO2
KRCM 251055Z AUTO 22003KT 10SM CLR M01/M02 A2999 RMK AO2
KRCM 251035Z AUTO 24004KT 10SM CLR M01/M02 A2999 RMK AO2
KRCM 251015Z AUTO 27003KT 10SM CLR M01/M02 A2998 RMK AO2
KRCM 250955Z AUTO 00000KT 10SM CLR 00/M02 A2997 RMK AO2
KRCM 250935Z AUTO 24004KT 10SM CLR 00/M02 A2998 RMK AO2
KRCM 250915Z AUTO 25009KT 10SM CLR 00/M01 A2997 RMK AO2
KRCM 250855Z AUTO 24010KT 10SM CLR 00/M01 A2997 RMK AO2
KRCM 250835Z AUTO 24010KT 10SM CLR 00/M01 A2997 RMK AO2
KRCM 250815Z AUTO 23009KT 10SM CLR 00/M01 A2997 RMK AO2
KRCM 250755Z AUTO 23009KT 10SM CLR 00/M01 A2996 RMK AO2
KRCM 250735Z AUTO 21009KT 10SM CLR 00/M01 A2996 RMK AO2
KRCM 250715Z AUTO 21008KT 10SM CLR 00/M01 A2995 RMK AO2
KRCM 250655Z AUTO 21008KT 10SM CLR 00/M01 A2994 RMK AO2
KRCM 250635Z AUTO 22008KT 10SM CLR 00/M01 A2994 RMK AO2
KRCM 250615Z AUTO 21008KT 10SM CLR 00/M01 A2993 RMK AO2
KRCM 250555Z AUTO 22007KT 10SM CLR 00/M01 A2994 RMK AO2
KRCM 250535Z AUTO 23010G16KT 10SM CLR 01/M01 A2993 RMK AO2
KRCM 250515Z AUTO 24012G16KT 10SM SCT025 01/M01 A2992 RMK AO2
KRCM 250455Z AUTO 25011G16KT 10SM BKN027 01/M01 A2992 RMK AO2
KRCM 250435Z AUTO 25012G20KT 10SM SCT022 OVC029 01/M01 A2990 RMK AO2
KRCM 250415Z AUTO 26011G16KT 10SM OVC024 01/00 A2990 RMK AO2
KRCM 250355Z AUTO 26014G22KT 10SM OVC022 02/M01 A2988 RMK AO2
KRCM 250335Z AUTO 25016G22KT 10SM OVC020 02/00 A2987 RMK AO2
KRCM 250315Z AUTO 25012G20KT 10SM OVC018 02/00 A2985 RMK AO2
KRCM 250255Z AUTO 25016G23KT 10SM OVC016 02/01 A2984 RMK AO2
KRCM 250235Z AUTO 25015G23KT 10SM OVC016 02/01 A2983 RMK AO2
KRCM 250215Z AUTO 26012G17KT 10SM OVC014 02/02 A2981 RMK AO2
KRCM 250155Z AUTO 25011G19KT 10SM OVC014 02/02 A2980 RMK AO2
KRCM 250135Z AUTO 26009G16KT 10SM OVC014 02/02 A2978 RMK AO2
KRCM 250115Z AUTO 26016G20KT 10SM SCT012 BKN018 OVC023 03/02 A2977 RMK AO2
KRCM 250055Z AUTO 26012G15KT 10SM BKN012 OVC020 03/03 A2975 RMK AO2
KRCM 250035Z AUTO 25014G20KT 4SM BR SCT009 OVC015 03/03 A2974 RMK AO2
KRCM 250015Z AUTO 26013G18KT 4SM BR BKN007 OVC015 04/04 A2972 RMK AO2
KRCM 242355Z AUTO 25008G17KT 7SM SCT008 BKN013 OVC018 05/04 A2970 RMK AO2
KRCM 242335Z AUTO 25009G14KT 3SM -DZ BKN006 BKN011 OVC019 05/05 A2969 RMK AO2
KRCM 242315Z AUTO 25011G15KT 2SM -DZ BKN004 BKN011 OVC016 06/05 A2968 RMK AO2
KRCM 242255Z AUTO 25012KT 2 1/2SM BR OVC004 06/06 A2968 RMK AO2
KRCM 242235Z AUTO 25009KT 10SM OVC004 07/07 A2966 RMK AO2
KRCM 242215Z AUTO 25008KT 10SM OVC004 07/07 A2965 RMK AO2 LTG DSNT SE
KRCM 242155Z AUTO 23003KT 10SM OVC004 08/07 A2963 RMK AO2
KRCM 242135Z AUTO 00000KT 10SM OVC004 07/07 A2964 RMK AO2
KRCM 242115Z AUTO 12005KT 10SM OVC002 07/07 A2963 RMK AO2
KRCM 242055Z AUTO 10006KT 10SM OVC002 07/06 A2965 RMK AO2 LTG DSNT SE
KRCM 242035Z AUTO 11005KT 10SM BKN002 OVC007 06/06 A2968 RMK AO2
KRCM 242015Z AUTO 12004KT 10SM -RA OVC002 05/05 A2970 RMK AO2
KRCM 241955Z AUTO 12006KT 5SM BR OVC002 05/05 A2971 RMK AO2
KRCM 241935Z AUTO 11007KT 2SM -DZ BKN002 OVC008 05/04 A2973 RMK AO2
KRCM 241915Z AUTO 12006KT 3/4SM DZ OVC002 05/04 A2978 RMK AO2 LTG DSNT SE
KRCM 241855Z AUTO 11003KT 1/2SM -DZ OVC002 04/03 A2979 RMK AO2 LTG DSNT SE
KRCM 241835Z AUTO 10004KT 1SM -RA OVC002 03/03 A2982 RMK AO2 LTG DSNT SE THRU SW
KRCM 241755Z AUTO 07003KT 1 1/2SM BR OVC004 03/03 A2984 RMK AO2 LTG DSNT SE AND S
KRCM 241735Z AUTO 10003KT 1 1/2SM BR OVC004 03/03 A2986 RMK AO2
KRCM 241715Z AUTO 08004KT 1 1/2SM BR OVC004 03/03 A2984 RMK AO2 LTG DSNT SW
KRCM 241655Z AUTO 09007KT 1 3/4SM BR OVC004 03/02 A2984 RMK AO2
KRCM 241635Z AUTO 07008KT 1 3/4SM BR OVC004 02/02 A2983 RMK AO2
KRCM 241615Z AUTO 08009G14KT 2SM BR OVC004 02/02 A2987 RMK AO2
KRCM 241555Z AUTO 06008KT 1 1/2SM BR OVC004 02/02 A2988 RMK AO2 LTG DSNT S
KRCM 241535Z AUTO 07006KT 1 1/4SM BR OVC004 02/02 A2992 RMK AO2
KRCM 241515Z AUTO 08008KT 2 1/2SM BR OVC004 02/01 A2993 RMK AO2
KRCM 241455Z AUTO 07008KT 2 1/2SM BR OVC004 02/01 A2993 RMK AO2
KRCM 241435Z AUTO 07008KT 2SM BR OVC004 02/01 A2993 RMK AO2
KRCM 241415Z AUTO 07011G15KT 1 1/2SM BR OVC004 01/01 A2995 RMK AO2
KRCM 241355Z AUTO 06008KT 2SM BR OVC004 01/01 A2996 RMK AO2